Map

Track Data

SID SEASON NUMBER BASIN SUBBASIN NAME ISO_TIME NATURE LAT LON WMO_WIND WMO_PRES WMO_AGENCY TRACK_TYPE DIST2LAND LANDFALL IFLAG USA_AGENCY USA_ATCF_ID USA_LAT USA_LON USA_RECORD USA_STATUS USA_WIND USA_PRES USA_SSHS USA_R34_NE USA_R34_SE USA_R34_SW USA_R34_NW USA_R50_NE USA_R50_SE USA_R50_SW USA_R50_NW USA_R64_NE USA_R64_SE USA_R64_SW USA_R64_NW USA_POCI USA_ROCI USA_RMW USA_EYE TOKYO_LAT TOKYO_LON TOKYO_GRADE TOKYO_WIND TOKYO_PRES TOKYO_R50_DIR TOKYO_R50_LONG TOKYO_R50_SHORT TOKYO_R30_DIR TOKYO_R30_LONG TOKYO_R30_SHORT TOKYO_LAND CMA_LAT CMA_LON CMA_CAT CMA_WIND CMA_PRES HKO_LAT HKO_LON HKO_CAT HKO_WIND HKO_PRES NEWDELHI_LAT NEWDELHI_LON NEWDELHI_GRADE NEWDELHI_WIND NEWDELHI_PRES NEWDELHI_CI NEWDELHI_DP NEWDELHI_POCI REUNION_LAT REUNION_LON REUNION_TYPE REUNION_WIND REUNION_PRES REUNION_TNUM REUNION_CI REUNION_RMW REUNION_R34_NE REUNION_R34_SE REUNION_R34_SW REUNION_R34_NW REUNION_R50_NE REUNION_R50_SE REUNION_R50_SW REUNION_R50_NW REUNION_R64_NE REUNION_R64_SE REUNION_R64_SW REUNION_R64_NW BOM_LAT BOM_LON BOM_TYPE BOM_WIND BOM_PRES BOM_TNUM BOM_CI BOM_RMW BOM_R34_NE BOM_R34_SE BOM_R34_SW BOM_R34_NW BOM_R50_NE BOM_R50_SE BOM_R50_SW BOM_R50_NW BOM_R64_NE BOM_R64_SE BOM_R64_SW BOM_R64_NW BOM_ROCI BOM_POCI BOM_EYE BOM_POS_METHOD BOM_PRES_METHOD NADI_LAT NADI_LON NADI_CAT NADI_WIND NADI_PRES WELLINGTON_LAT WELLINGTON_LON WELLINGTON_WIND WELLINGTON_PRES DS824_LAT DS824_LON DS824_STAGE DS824_WIND DS824_PRES TD9636_LAT TD9636_LON TD9636_STAGE TD9636_WIND TD9636_PRES TD9635_LAT TD9635_LON TD9635_WIND TD9635_PRES TD9635_ROCI NEUMANN_LAT NEUMANN_LON NEUMANN_CLASS NEUMANN_WIND NEUMANN_PRES MLC_LAT MLC_LON MLC_CLASS MLC_WIND MLC_PRES USA_GUST BOM_GUST BOM_GUST_PER REUNION_GUST REUNION_GUST_PER USA_SEAHGT USA_SEARAD_NE USA_SEARAD_SE USA_SEARAD_SW USA_SEARAD_NW STORM_SPEED STORM_DIR
1955215N15320 1955 50 NA NA CONNIE 1955-08-03 06:00:00 TS 15.3000 -40.0000 30 hurdat_atl main 1745 1686 O_____________ hurdat_atl AL021955 15.3000 -40.0000 TD 30 -1 21 281
1955215N15320 1955 50 NA NA CONNIE 1955-08-03 09:00:00 TS 15.4983 -41.0423 main 1686 1632 P_____________ AL021955 15.4983 -41.0423 TD 32 -1 21 281
1955215N15320 1955 50 NA NA CONNIE 1955-08-03 12:00:00 TS 15.7000 -42.1000 35 hurdat_atl main 1625 1578 O_____________ hurdat_atl AL021955 15.7000 -42.1000 TS 35 0 21 281
1955215N15320 1955 50 NA NA CONNIE 1955-08-03 15:00:00 TS 15.9073 -43.1725 main 1572 1533 P_____________ AL021955 15.9073 -43.1725 TS 37 0 21 281
1955215N15320 1955 50 NA NA CONNIE 1955-08-03 18:00:00 TS 16.1000 -44.2000 40 1004 hurdat_atl main 1526 1479 O_____________ hurdat_atl AL021955 16.1000 -44.2000 TS 40 1004 0 19 281
1955215N15320 1955 50 NA NA CONNIE 1955-08-03 21:00:00 TS 16.2569 -45.1302 main 1488 1446 P_____________ AL021955 16.2569 -45.1302 TS 45 0 18 280
1955215N15320 1955 50 NA NA CONNIE 1955-08-04 00:00:00 TS 16.4000 -46.0000 50 hurdat_atl main 1446 1414 O_____________ hurdat_atl AL021955 16.4000 -46.0000 TS 50 0 17 280
1955215N15320 1955 50 NA NA CONNIE 1955-08-04 03:00:00 TS 16.5497 -46.8651 main 1409 1392 P_____________ AL021955 16.5497 -46.8651 TS 55 0 17 280
1955215N15320 1955 50 NA NA CONNIE 1955-08-04 06:00:00 TS 16.7000 -47.7000 60 hurdat_atl main 1392 1369 O_____________ hurdat_atl AL021955 16.7000 -47.7000 TS 60 0 16 281
1955215N15320 1955 50 NA NA CONNIE 1955-08-04 09:00:00 TS 16.8421 -48.5077 main 1369 1352 P_____________ AL021955 16.8421 -48.5077 TS 65 1 16 281
1955215N15320 1955 50 NA NA CONNIE 1955-08-04 12:00:00 TS 17.0000 -49.3000 70 hurdat_atl main 1352 1338 O_____________ hurdat_atl AL021955 17.0000 -49.3000 HU 70 1 16 283
1955215N15320 1955 50 NA NA CONNIE 1955-08-04 15:00:00 TS 17.1999 -50.1149 main 1341 1322 P_____________ AL021955 17.1999 -50.1149 HU 70 1 16 285
1955215N15320 1955 50 NA NA CONNIE 1955-08-04 18:00:00 TS 17.4000 -50.9000 70 hurdat_atl main 1322 1276 O_____________ hurdat_atl AL021955 17.4000 -50.9000 HU 70 1 14 284
1955215N15320 1955 50 NA NA CONNIE 1955-08-04 21:00:00 TS 17.5566 -51.5779 main 1274 1221 P_____________ AL021955 17.5566 -51.5779 HU 70 1 14 283
1955215N15320 1955 50 NA NA CONNIE 1955-08-05 00:00:00 TS 17.7000 -52.3000 70 hurdat_atl main 1221 1156 O_____________ hurdat_atl AL021955 17.7000 -52.3000 HU 70 1 16 281
1955215N15320 1955 50 NA NA CONNIE 1955-08-05 03:00:00 TS 17.8500 -53.2126 main 1164 1104 P_____________ AL021955 17.8500 -53.2126 HU 70 1 18 279
1955215N15320 1955 50 NA NA CONNIE 1955-08-05 06:00:00 TS 18.0000 -54.2000 70 hurdat_atl main 1097 1043 O_____________ hurdat_atl AL021955 18.0000 -54.2000 HU 70 1 19 279
1955215N15320 1955 50 NA NA CONNIE 1955-08-05 09:00:00 TS 18.1571 -55.1575 main 1046 1006 P_____________ AL021955 18.1571 -55.1575 HU 72 1 18 279
1955215N15320 1955 50 NA NA CONNIE 1955-08-05 12:00:00 TS 18.3000 -56.1000 75 hurdat_atl main 1000 907 O_____________ hurdat_atl AL021955 18.3000 -56.1000 HU 75 1 18 278
1955215N15320 1955 50 NA NA CONNIE 1955-08-05 15:00:00 TS 18.4072 -57.0227 main 907 812 P_____________ AL021955 18.4072 -57.0227 HU 75 1 17 277
1955215N15320 1955 50 NA NA CONNIE 1955-08-05 18:00:00 TS 18.5000 -57.9000 75 985 hurdat_atl main 812 727 O_____________ hurdat_atl AL021955 18.5000 -57.9000 HU 75 985 1 16 277
1955215N15320 1955 50 NA NA CONNIE 1955-08-05 21:00:00 TS 18.5921 -58.7302 main 727 643 P_____________ AL021955 18.5921 -58.7302 HU 77 1 15 278
1955215N15320 1955 50 NA NA CONNIE 1955-08-06 00:00:00 TS 18.7000 -59.5000 80 hurdat_atl main 643 570 O_____________ hurdat_atl AL021955 18.7000 -59.5000 HU 80 1 14 280
1955215N15320 1955 50 NA NA CONNIE 1955-08-06 03:00:00 TS 18.8420 -60.2076 main 570 499 P_____________ AL021955 18.8420 -60.2076 HU 82 1 14 283
1955215N15320 1955 50 NA NA CONNIE 1955-08-06 06:00:00 TS 19.0000 -60.9000 85 hurdat_atl main 499 428 O_____________ hurdat_atl AL021955 19.0000 -60.9000 HU 85 2 14 283
1955215N15320 1955 50 NA NA CONNIE 1955-08-06 09:00:00 TS 19.1498 -61.6426 main 428 351 P_____________ AL021955 19.1498 -61.6426 HU 87 2 14 282
1955215N15320 1955 50 NA NA CONNIE 1955-08-06 12:00:00 TS 19.3000 -62.4000 90 hurdat_atl main 351 285 O_____________ hurdat_atl AL021955 19.3000 -62.4000 HU 90 2 15 280
1955215N15320 1955 50 NA NA CONNIE 1955-08-06 15:00:00 TS 19.4124 -63.1656 main 276 223 P_____________ AL021955 19.4124 -63.1656 HU 95 2 14 282
1955215N15320 1955 50 NA NA CONNIE 1955-08-06 18:00:00 TS 19.6000 -63.9000 100 968 hurdat_atl main 223 201 O_____________ hurdat_atl AL021955 19.6000 -63.9000 HU 100 968 3 14 293
1955215N15320 1955 50 NA NA CONNIE 1955-08-06 21:00:00 TS 19.9622 -64.5724 main 207 202 P_____________ AL021955 19.9622 -64.5724 HU 102 3 15 303
1955215N15320 1955 50 NA NA CONNIE 1955-08-07 00:00:00 TS 20.4000 -65.2000 105 hurdat_atl main 227 225 O_____________ hurdat_atl AL021955 20.4000 -65.2000 HU 105 3 14 306
1955215N15320 1955 50 NA NA CONNIE 1955-08-07 03:00:00 TS 20.7997 -65.8079 main 268 268 P_____________ AL021955 20.7997 -65.8079 HU 107 3 14 305
1955215N15320 1955 50 NA NA CONNIE 1955-08-07 06:00:00 TS 21.2000 -66.4000 110 hurdat_atl main 313 313 O_____________ hurdat_atl AL021955 21.2000 -66.4000 HU 110 3 14 306
1955215N15320 1955 50 NA NA CONNIE 1955-08-07 09:00:00 TS 21.5998 -67.0003 main 351 342 P_____________ AL021955 21.5998 -67.0003 HU 112 3 14 306
1955215N15320 1955 50 NA NA CONNIE 1955-08-07 12:00:00 TS 22.0000 -67.6000 115 952 hurdat_atl main 349 344 O_____________ hurdat_atl AL021955 22.0000 -67.6000 HU 115 952 4 14 305
1955215N15320 1955 50 NA NA CONNIE 1955-08-07 15:00:00 TS 22.3773 -68.2007 main 364 359 P_____________ AL021955 22.3773 -68.2007 HU 117 948 4 14 306
1955215N15320 1955 50 NA NA CONNIE 1955-08-07 18:00:00 TS 22.8000 -68.8000 120 944 hurdat_atl main 378 378 O_____________ hurdat_atl AL021955 22.8000 -68.8000 HU 120 944 4 15 310
1955215N15320 1955 50 NA NA CONNIE 1955-08-07 21:00:00 TS 23.3274 -69.4076 main 410 410 P_____________ AL021955 23.3274 -69.4076 HU 120 4 16 315
1955215N15320 1955 50 NA NA CONNIE 1955-08-08 00:00:00 TS 23.9000 -70.0000 120 hurdat_atl main 431 426 O_____________ hurdat_atl AL021955 23.9000 -70.0000 HU 120 4 16 316
1955215N15320 1955 50 NA NA CONNIE 1955-08-08 03:00:00 TS 24.4500 -70.5877 main 434 434 P_____________ AL021955 24.4500 -70.5877 HU 117 4 15 318
1955215N15320 1955 50 NA NA CONNIE 1955-08-08 06:00:00 TS 25.0000 -71.1000 115 hurdat_atl main 467 467 O_____________ hurdat_atl AL021955 25.0000 -71.1000 HU 115 4 14 324
1955215N15320 1955 50 NA NA CONNIE 1955-08-08 09:00:00 TS 25.5647 -71.4954 main 515 515 P_____________ AL021955 25.5647 -71.4954 HU 112 3 13 330
1955215N15320 1955 50 NA NA CONNIE 1955-08-08 12:00:00 TS 26.1000 -71.8000 110 944 hurdat_atl main 561 561 O_____________ hurdat_atl AL021955 26.1000 -71.8000 HU 110 944 3 11 333
1955215N15320 1955 50 NA NA CONNIE 1955-08-08 15:00:00 TS 26.5648 -72.0581 main 608 602 P_____________ AL021955 26.5648 -72.0581 HU 107 944 3 10 334
1955215N15320 1955 50 NA NA CONNIE 1955-08-08 18:00:00 TS 27.0000 -72.3000 105 944 hurdat_atl main 606 596 O_____________ hurdat_atl AL021955 27.0000 -72.3000 HU 105 944 3 10 332
1955215N15320 1955 50 NA NA CONNIE 1955-08-08 21:00:00 TS 27.4575 -72.6000 main 600 590 P_____________ AL021955 27.4575 -72.6000 HU 105 3 10 329
1955215N15320 1955 50 NA NA CONNIE 1955-08-09 00:00:00 TS 27.9000 -72.9000 105 hurdat_atl main 595 590 O_____________ hurdat_atl AL021955 27.9000 -72.9000 HU 105 3 10 330
1955215N15320 1955 50 NA NA CONNIE 1955-08-09 03:00:00 TS 28.3149 -73.1652 main 595 595 P_____________ AL021955 28.3149 -73.1652 HU 102 3 9 331
1955215N15320 1955 50 NA NA CONNIE 1955-08-09 06:00:00 TS 28.7000 -73.4000 100 hurdat_atl main 607 607 O_____________ hurdat_atl AL021955 28.7000 -73.4000 HU 100 3 8 333
1955215N15320 1955 50 NA NA CONNIE 1955-08-09 09:00:00 TS 29.0649 -73.6077 main 623 616 P_____________ AL021955 29.0649 -73.6077 HU 100 3 8 333
1955215N15320 1955 50 NA NA CONNIE 1955-08-09 12:00:00 TS 29.4000 -73.8000 100 959 hurdat_atl main 634 601 O_____________ hurdat_atl AL021955 29.4000 -73.8000 HU 100 959 3 7 333
1955215N15320 1955 50 NA NA CONNIE 1955-08-09 15:00:00 TS 29.7224 -73.9852 main 601 563 P_____________ AL021955 29.7224 -73.9852 HU 97 960 3 7 330
1955215N15320 1955 50 NA NA CONNIE 1955-08-09 18:00:00 TS 30.0000 -74.2000 95 961 hurdat_atl main 563 527 O_____________ hurdat_atl AL021955 30.0000 -74.2000 HU 95 961 2 7 319
1955215N15320 1955 50 NA NA CONNIE 1955-08-09 21:00:00 TS 30.2226 -74.4925 main 527 492 P_____________ AL021955 30.2226 -74.4925 HU 92 2 7 308
1955215N15320 1955 50 NA NA CONNIE 1955-08-10 00:00:00 TS 30.4000 -74.8000 90 hurdat_atl main 492 463 O_____________ hurdat_atl AL021955 30.4000 -74.8000 HU 90 2 6 305
1955215N15320 1955 50 NA NA CONNIE 1955-08-10 03:00:00 TS 30.5649 -75.0576 main 457 437 P_____________ AL021955 30.5649 -75.0576 HU 87 2 5 305
1955215N15320 1955 50 NA NA CONNIE 1955-08-10 06:00:00 TS 30.7000 -75.3000 85 hurdat_atl main 437 417 O_____________ hurdat_atl AL021955 30.7000 -75.3000 HU 85 2 5 300
1955215N15320 1955 50 NA NA CONNIE 1955-08-10 09:00:00 TS 30.8074 -75.5426 main 417 392 P_____________ AL021955 30.8074 -75.5426 HU 85 2 5 295
1955215N15320 1955 50 NA NA CONNIE 1955-08-10 12:00:00 TS 30.9000 -75.8000 85 972 hurdat_atl main 392 369 O_____________ hurdat_atl AL021955 30.9000 -75.8000 HU 85 972 2 5 292
1955215N15320 1955 50 NA NA CONNIE 1955-08-10 15:00:00 TS 31.0000 -76.1000 main 369 346 P_____________ AL021955 31.0000 -76.1000 HU 85 971 2 6 291
1955215N15320 1955 50 NA NA CONNIE 1955-08-10 18:00:00 TS 31.1000 -76.4000 85 970 hurdat_atl main 346 323 O_____________ hurdat_atl AL021955 31.1000 -76.4000 HU 85 970 2 5 291
1955215N15320 1955 50 NA NA CONNIE 1955-08-10 21:00:00 TS 31.1925 -76.6875 main 323 301 P_____________ AL021955 31.1925 -76.6875 HU 82 971 1 5 295
1955215N15320 1955 50 NA NA CONNIE 1955-08-11 00:00:00 TS 31.3000 -76.9000 80 973 hurdat_atl main 301 287 O_____________ hurdat_atl AL021955 31.3000 -76.9000 HU 80 973 1 3 313
1955215N15320 1955 50 NA NA CONNIE 1955-08-11 03:00:00 TS 31.4274 -76.9876 main 287 272 P_____________ AL021955 31.4274 -76.9876 HU 80 974 1 3 344
1955215N15320 1955 50 NA NA CONNIE 1955-08-11 06:00:00 TS 31.6000 -77.0000 80 hurdat_atl main 272 252 I_____________ hurdat_atl AL021955 31.6000 -77.0000 HU 80 975 1 4 0
1955215N15320 1955 50 NA NA CONNIE 1955-08-11 09:00:00 TS 31.8275 -77.0001 main 252 221 P_____________ AL021955 31.8275 -77.0001 HU 77 976 1 5 2
1955215N15320 1955 50 NA NA CONNIE 1955-08-11 12:00:00 TS 32.1000 -77.0000 75 978 hurdat_atl main 221 186 O_____________ hurdat_atl AL021955 32.1000 -77.0000 HU 75 978 1 6 357
1955215N15320 1955 50 NA NA CONNIE 1955-08-11 15:00:00 TS 32.4000 -77.0573 main 186 157 P_____________ AL021955 32.4000 -77.0573 HU 75 977 1 6 352
1955215N15320 1955 50 NA NA CONNIE 1955-08-11 18:00:00 TS 32.7000 -77.1000 75 977 hurdat_atl main 157 139 O_____________ hurdat_atl AL021955 32.7000 -77.1000 HU 75 977 1 6 357
1955215N15320 1955 50 NA NA CONNIE 1955-08-11 21:00:00 TS 32.9575 -77.0651 main 130 121 P_____________ AL021955 32.9575 -77.0651 HU 77 1 5 9
1955215N15320 1955 50 NA NA CONNIE 1955-08-12 00:00:00 TS 33.2000 -77.0000 80 hurdat_atl main 121 107 O_____________ hurdat_atl AL021955 33.2000 -77.0000 HU 80 1 5 11
1955215N15320 1955 50 NA NA CONNIE 1955-08-12 03:00:00 TS 33.4425 -76.9500 main 115 99 P_____________ AL021955 33.4425 -76.9500 HU 80 1 5 9
1955215N15320 1955 50 NA NA CONNIE 1955-08-12 06:00:00 TS 33.7000 -76.9000 80 hurdat_atl main 99 72 O_____________ hurdat_atl AL021955 33.7000 -76.9000 HU 80 1 5 9
1955215N15320 1955 50 NA NA CONNIE 1955-08-12 09:00:00 TS 33.9727 -76.8601 main 72 44 P_____________ AL021955 33.9727 -76.8601 HU 82 1 6 8
1955215N15320 1955 50 NA NA CONNIE 1955-08-12 12:00:00 TS 34.3000 -76.8000 85 965 hurdat_atl main 44 0 O_____________ hurdat_atl AL021955 34.3000 -76.8000 HU 85 965 2 7 10
1955215N15320 1955 50 NA NA CONNIE 1955-08-12 15:00:00 TS 34.7000 -76.7000 85 962 hurdat_atl main 0 0 O_____________ hurdat_atl AL021955 34.7000 -76.7000 L HU 85 962 2 7 13
1955215N15320 1955 50 NA NA CONNIE 1955-08-12 18:00:00 TS 35.0000 -76.6000 85 962 hurdat_atl main 9 0 O_____________ hurdat_atl AL021955 35.0000 -76.6000 HU 85 962 2 9 19
1955215N15320 1955 50 NA NA CONNIE 1955-08-12 21:00:00 TS 35.5718 -76.3412 main 0 0 P_____________ AL021955 35.5718 -76.3412 HU 80 965 1 14 17
1955215N15320 1955 50 NA NA CONNIE 1955-08-13 00:00:00 TS 36.3000 -76.1000 75 969 hurdat_atl main 0 0 O_____________ hurdat_atl AL021955 36.3000 -76.1000 HU 75 969 1 14 8
1955215N15320 1955 50 NA NA CONNIE 1955-08-13 03:00:00 TS 36.9924 -76.0821 main 11 8 P_____________ AL021955 36.9924 -76.0821 HU 67 971 1 14 357
1955215N15320 1955 50 NA NA CONNIE 1955-08-13 06:00:00 TS 37.7000 -76.2000 60 974 hurdat_atl main 14 0 O_____________ hurdat_atl AL021955 37.7000 -76.2000 TS 60 974 0 14 352
1955215N15320 1955 50 NA NA CONNIE 1955-08-13 09:00:00 TS 38.3998 -76.3481 main 8 0 P_____________ AL021955 38.3998 -76.3481 TS 55 978 0 14 347
1955215N15320 1955 50 NA NA CONNIE 1955-08-13 12:00:00 TS 39.1000 -76.6000 50 982 hurdat_atl main 0 0 O_____________ hurdat_atl AL021955 39.1000 -76.6000 TS 50 982 0 15 343
1955215N15320 1955 50 NA NA CONNIE 1955-08-13 15:00:00 TS 39.7989 -76.8900 main 0 0 P_____________ AL021955 39.7989 -76.8900 TS 47 988 0 15 336
1955215N15320 1955 50 NA NA CONNIE 1955-08-13 18:00:00 TS 40.5000 -77.4000 45 995 hurdat_atl main 0 0 O_____________ hurdat_atl AL021955 40.5000 -77.4000 TS 45 995 0 18 324
1955215N15320 1955 50 NA NA CONNIE 1955-08-13 21:00:00 TS 41.2307 -78.2583 main 0 0 P_____________ AL021955 41.2307 -78.2583 TS 45 996 0 20 314
1955215N15320 1955 50 NA NA CONNIE 1955-08-14 00:00:00 TS 41.9000 -79.3000 45 998 hurdat_atl main 0 0 O_____________ hurdat_atl AL021955 41.9000 -79.3000 TS 45 998 0 20 308
1955215N15320 1955 50 NA NA CONNIE 1955-08-14 03:00:00 TS 42.4456 -80.3532 main 0 0 P_____________ AL021955 42.4456 -80.3532 TS 42 1000 0 18 304
1955215N15320 1955 50 NA NA CONNIE 1955-08-14 06:00:00 TS 42.9000 -81.3000 40 1002 hurdat_atl main 0 0 O_____________ hurdat_atl AL021955 42.9000 -81.3000 TS 40 1002 0 15 306
1955215N15320 1955 50 NA NA CONNIE 1955-08-14 09:00:00 TS 43.3139 -81.9919 main 0 0 P_____________ AL021955 43.3139 -81.9919 TS 40 1004 0 12 312
1955215N15320 1955 50 NA NA CONNIE 1955-08-14 12:00:00 TS 43.7000 -82.5000 40 1006 hurdat_atl main 0 0 O_____________ hurdat_atl AL021955 43.7000 -82.5000 TS 40 1006 0 11 317
1955215N15320 1955 50 NA NA CONNIE 1955-08-14 15:00:00 TS 44.0924 -83.0119 main 0 0 P_____________ AL021955 44.0924 -83.0119 TS 37 1008 0 10 324
1955215N15320 1955 50 NA NA CONNIE 1955-08-14 18:00:00 TS 44.5000 -83.3000 35 1010 hurdat_atl main 0 0 O_____________ hurdat_atl AL021955 44.5000 -83.3000 TS 35 1010 0 9 349
1955215N15320 1955 50 NA NA CONNIE 1955-08-14 21:00:00 TS 44.9402 -83.2518 main 0 0 P_____________ AL021955 44.9402 -83.2518 TS 35 1010 0 9 13
1955215N15320 1955 50 NA NA CONNIE 1955-08-15 00:00:00 TS 45.4000 -83.0000 35 1011 hurdat_atl main 0 O_____________ hurdat_atl AL021955 45.4000 -83.0000 TS 35 1011 0 10 21

About IBTrACS Database

This database is a web-friendly format of International Best Track Archive for Climate Stewardship (IBTrACS), a global best track data archive curated by NOAA dating back to 1842.

Updated: 2021-12-01